TimeCET,TemperatureF,Dew PointF,Humidity,Sea Level PressureIn,VisibilityMPH,Wind Direction,Wind SpeedMPH,Gust SpeedMPH,PrecipitationIn,Events,Conditions,WindDirDegrees,DateUTC
12:25 AM,37.4,35.6,93,30.15,3.7,SSW,13.8,-,N/A,,Drizzle,210,2012-12-08 23:25:00
12:55 AM,37.4,35.6,93,30.15,3.7,SSW,12.7,-,N/A,,Drizzle,210,2012-12-08 23:55:00
1:00 AM,38,36,90,30.16,4,SSW,13.4,,,Rain,Heavy Rain,210,2012-12-09 00:00:00
1:25 AM,39.2,35.6,87,30.12,4.3,SW,13.8,-,N/A,Rain,Light Rain,220,2012-12-09 00:25:00
1:55 AM,39.2,37.4,93,30.12,3.7,SSW,12.7,-,N/A,Rain,Light Rain,210,2012-12-09 00:55:00
2:25 AM,39.2,37.4,93,30.12,3.1,SSW,13.8,-,N/A,Rain,Light Rain,210,2012-12-09 01:25:00
2:55 AM,39.2,37.4,93,30.09,-9999.0,SW,15.0,-,N/A,Rain,Light Rain,220,2012-12-09 01:55:00
3:25 AM,39.2,39.2,100,30.09,3.1,SW,17.3,-,N/A,,Drizzle,220,2012-12-09 02:25:00
3:55 AM,39.2,39.2,100,30.06,3.7,SW,17.3,-,N/A,Rain,Light Rain,220,2012-12-09 02:55:00
4:00 AM,40,39,94,30.08,3,SW,20.1,,,Rain,Light Rain,220,2012-12-09 03:00:00
4:25 AM,39.2,39.2,100,30.06,2.2,SW,18.4,-,N/A,Rain,Light Rain,220,2012-12-09 03:25:00
4:55 AM,39.2,39.2,100,30.04,-9999.0,SW,16.1,-,N/A,,Drizzle,220,2012-12-09 03:55:00
5:25 AM,41.0,39.2,93,30.04,-9999.0,SW,15.0,-,N/A,Rain,Light Rain Showers,220,2012-12-09 04:25:00
5:55 AM,41.0,41.0,100,30.01,3.1,SW,13.8,-,N/A,,Drizzle,220,2012-12-09 04:55:00
6:25 AM,42.8,41.0,93,30.01,-9999.0,SW,11.5,-,N/A,,Heavy Drizzle,220,2012-12-09 05:25:00
6:55 AM,44.6,42.8,93,29.98,4.3,SW,11.5,-,N/A,,Mostly Cloudy,230,2012-12-09 05:55:00
7:00 AM,44,42,92,30.00,8,SW,13.4,,,Rain,Rain,230,2012-12-09 06:00:00
7:25 AM,44.6,42.8,93,29.98,6.2,WSW,15.0,-,N/A,,Overcast,240,2012-12-09 06:25:00
7:55 AM,44.6,42.8,93,29.98,6.2,West,15.0,-,N/A,,Drizzle,260,2012-12-09 06:55:00
8:25 AM,44.6,42.8,93,29.95,6.2,WSW,16.1,-,N/A,Rain,Drizzle,250,2012-12-09 07:25:00
8:55 AM,44.6,42.8,93,29.95,6.2,West,16.1,-,N/A,Rain,Light Rain,260,2012-12-09 07:55:00
9:25 AM,46.4,41.0,81,29.95,6.2,West,17.3,-,N/A,,Overcast,260,2012-12-09 08:25:00
9:55 AM,46.4,41.0,81,29.92,6.2,WSW,19.6,-,N/A,,Drizzle,250,2012-12-09 08:55:00
10:00 AM,46,42,79,29.93,11,WSW,17.9,,,Rain,Light Drizzle,250,2012-12-09 09:00:00
10:25 AM,46.4,41.0,81,29.92,6.2,WSW,19.6,33.4,N/A,,Light Drizzle,250,2012-12-09 09:25:00
10:55 AM,46.4,42.8,87,29.92,6.2,West,17.3,-,N/A,,Overcast,260,2012-12-09 09:55:00
11:25 AM,46.4,41.0,81,29.89,6.2,West,21.9,34.5,N/A,,Mostly Cloudy,270,2012-12-09 10:25:00
11:55 AM,46.4,41.0,81,29.89,6.2,West,21.9,33.4,N/A,,Light Drizzle,270,2012-12-09 10:55:00
12:25 PM,46.4,41.0,81,29.86,6.2,West,18.4,-,N/A,,Overcast,270,2012-12-09 11:25:00
12:55 PM,46.4,42.8,87,29.86,6.2,West,19.6,-,N/A,,Overcast,270,2012-12-09 11:55:00
1:00 PM,46,43,84,29.86,5,West,20.1,,,Rain,Light Rain Showers,270,2012-12-09 12:00:00
1:25 PM,46.4,42.8,87,29.83,6.2,West,20.7,-,N/A,,Mostly Cloudy,270,2012-12-09 12:25:00
1:55 PM,46.4,42.8,87,29.83,6.2,West,18.4,-,N/A,,Overcast,270,2012-12-09 12:55:00
2:25 PM,46.4,41.0,81,29.83,6.2,West,18.4,32.2,N/A,,Mostly Cloudy,270,2012-12-09 13:25:00
2:55 PM,46.4,41.0,81,29.80,6.2,West,19.6,32.2,N/A,,Mostly Cloudy,270,2012-12-09 13:55:00
3:25 PM,42.8,41.0,93,29.80,3.7,WNW,19.6,33.4,N/A,Rain,Light Rain,300,2012-12-09 14:25:00
3:55 PM,46.4,41.0,81,29.80,6.2,West,19.6,32.2,N/A,Rain,Light Rain,280,2012-12-09 14:55:00
4:00 PM,46,40,74,29.80,11,West,20.1,,,Rain,Light Rain Showers,280,2012-12-09 15:00:00
4:25 PM,46.4,39.2,76,29.80,6.2,West,19.6,-,N/A,,Mostly Cloudy,280,2012-12-09 15:25:00
4:55 PM,44.6,37.4,76,29.80,6.2,WNW,16.1,27.6,N/A,,Partly Cloudy,290,2012-12-09 15:55:00
5:25 PM,44.6,35.6,71,29.77,6.2,WNW,19.6,-,N/A,Thunderstorm,Thunderstorm,290,2012-12-09 16:25:00
5:55 PM,44.6,37.4,76,29.77,6.2,WNW,17.3,28.8,N/A,,Scattered Clouds,290,2012-12-09 16:55:00
6:25 PM,44.6,35.6,71,29.77,6.2,WNW,18.4,-,N/A,,Unknown,290,2012-12-09 17:25:00
6:55 PM,44.6,37.4,76,29.77,6.2,WNW,17.3,-,N/A,,Mostly Cloudy,290,2012-12-09 17:55:00
7:00 PM,44,36,64,29.77,10,WNW,20.1,,,,Partly Cloudy,290,2012-12-09 18:00:00
7:25 PM,44.6,37.4,76,29.74,6.2,West,19.6,32.2,N/A,,Scattered Clouds,280,2012-12-09 18:25:00
7:55 PM,42.8,37.4,81,29.74,6.2,NW,33.4,48.3,N/A,,Mostly Cloudy,310,2012-12-09 18:55:00
8:25 PM,41.0,37.4,87,29.74,6.2,WNW,15.0,-,N/A,,Partly Cloudy,290,2012-12-09 19:25:00
8:55 PM,42.8,37.4,81,29.74,6.2,WNW,17.3,31.1,N/A,,Mostly Cloudy,290,2012-12-09 19:55:00
9:25 PM,42.8,37.4,81,29.74,6.2,WNW,17.3,28.8,N/A,,Mostly Cloudy,300,2012-12-09 20:25:00
9:55 PM,42.8,35.6,76,29.74,6.2,WNW,20.7,-,N/A,,Partly Cloudy,300,2012-12-09 20:55:00
10:00 PM,41,35,71,29.75,11,WNW,17.9,,,Rain,Rain,290,2012-12-09 21:00:00
10:25 PM,44.6,35.6,71,29.74,6.2,WNW,20.7,35.7,N/A,,Mostly Cloudy,290,2012-12-09 21:25:00
10:55 PM,42.8,35.6,76,29.74,6.2,WNW,20.7,-,N/A,,Partly Cloudy,300,2012-12-09 21:55:00
11:25 PM,42.8,37.4,81,29.74,6.2,WNW,19.6,33.4,N/A,,Light Drizzle,290,2012-12-09 22:25:00
11:55 PM,42.8,39.2,87,29.74,5.6,WNW,23.0,34.5,N/A,Rain,Light Rain,300,2012-12-09 22:55:00